Terminal Aerodrome Forecast
Issued by NWS

Home | Current Version | Previous Version | Text Only | Print | Product List | Glossary On
Versions: 1 2 3 4 5 6 7 8 9 10 11 12 13 14 15 16 17 18 19 20 21 22 23 24 25 26 27 28 29 30 31
000
FTUS42 KRAH 282341 AAA
TAFRWI
TAF AMD
KRWI 282341Z 2900/2924 26007KT P6SM VCTS SCT020 BKN040CB
      TEMPO 2900/2902 VRB15G25KT 3SM TSRA SCT010 BKN018CB
     FM290300 04003KT P6SM BKN250
     FM290900 VRB02KT 2SM BR OVC003
     FM291500 01004KT P6SM BKN020=

USA.gov is the U.S. government's official web portal to all federal, state and local government web resources and services.